Time;durP1;ratioP1;P1;durP2;ratioP2;P2;SDS_P1;SDS_P2;PMS_P1;PMS_P2;Temp;Humidity;BMP_temperature;BMP_pressure;BME280_temperature;BME280_humidity;BME280_pressure;Samples;Min_cycle;Max_cycle;Signal;HPM_P1;HPM_P2
2023/01/06 00:02:13;;;;;;;14.40;6.70;;;;;;;2.41;83.40;100543.36;107521;1254;79438;-55
2023/01/06 00:04:55;;;;;;;11.00;5.80;;;;;;;2.45;83.31;100551.04;107463;1254;99338;-55
2023/01/06 00:07:44;;;;;;;6.10;4.50;;;;;;;2.46;83.34;100554.47;107524;1254;87068;-54
2023/01/06 00:10:24;;;;;;;6.20;4.50;;;;;;;2.48;83.23;100554.80;107499;1253;94271;-55
2023/01/06 00:13:08;;;;;;;4.90;3.90;;;;;;;2.47;83.38;100562.90;107489;1254;80142;-55
2023/01/06 00:15:43;;;;;;;6.70;3.60;;;;;;;2.42;83.31;100564.60;107515;1254;82852;-57
2023/01/06 00:18:23;;;;;;;7.30;3.60;;;;;;;2.38;83.29;100560.65;107479;1254;98664;-57
2023/01/06 00:21:02;;;;;;;5.40;3.50;;;;;;;2.33;83.23;100566.31;107497;1253;88355;-57
2023/01/06 00:23:39;;;;;;;4.80;3.10;;;;;;;2.34;83.14;100571.87;107522;1254;95103;-58
2023/01/06 00:26:14;;;;;;;4.50;3.30;;;;;;;2.37;83.16;100575.45;107528;1254;79797;-55
2023/01/06 00:28:54;;;;;;;4.70;3.50;;;;;;;2.36;83.23;100579.31;107499;1257;82785;-55
2023/01/06 00:31:34;;;;;;;4.90;3.50;;;;;;;2.34;83.18;100585.38;107463;1254;99035;-54
2023/01/06 00:34:12;;;;;;;4.40;3.60;;;;;;;2.29;83.27;100594.32;107486;1253;88811;-59
2023/01/06 00:36:54;;;;;;;3.90;3.50;;;;;;;2.29;83.25;100603.41;107449;1254;96154;-58
2023/01/06 00:39:31;;;;;;;3.90;3.40;;;;;;;2.25;83.28;100611.72;107477;1253;80400;-56
2023/01/06 00:42:09;;;;;;;5.80;4.20;;;;;;;2.27;83.24;100618.30;107461;1253;82533;-57
2023/01/06 00:44:51;;;;;;;6.90;4.80;;;;;;;2.31;83.31;100623.81;107456;1254;99080;-54
2023/01/06 00:47:28;;;;;;;14.50;8.40;;;;;;;2.32;83.25;100626.20;107437;1253;89582;-55
2023/01/06 00:50:07;;;;;;;11.00;7.70;;;;;;;2.34;83.33;100631.98;107489;1253;93573;-58
2023/01/06 00:52:49;;;;;;;6.00;5.00;;;;;;;2.29;83.17;100640.05;107479;1254;78831;-57
2023/01/06 00:55:28;;;;;;;5.40;4.20;;;;;;;2.24;83.19;100642.73;107530;1254;80960;-58
2023/01/06 00:58:16;;;;;;;6.50;4.30;;;;;;;2.20;83.12;100645.42;107453;1253;97536;-58
2023/01/06 01:01:01;;;;;;;3.90;3.30;;;;;;;2.10;82.99;100645.33;107506;1253;88161;-54
2023/01/06 01:03:42;;;;;;;3.50;2.90;;;;;;;2.09;82.92;100642.95;107493;1256;94705;-55
2023/01/06 01:06:26;;;;;;;4.90;2.90;;;;;;;2.12;82.99;100644.98;107535;1253;77708;-58
2023/01/06 01:09:05;;;;;;;;;;;;;;;2.14;83.06;100647.15;107533;1254;83554;-59
2023/01/06 01:14:48;;;;;;;3.40;2.70;;;;;;;2.02;83.06;100650.83;107526;1254;88858;-55
2023/01/06 01:17:27;;;;;;;3.80;3.20;;;;;;;2.02;82.91;100666.84;107486;1253;94734;-56
2023/01/06 01:20:04;;;;;;;4.80;3.40;;;;;;;2.01;82.80;100680.25;107514;1254;81067;-57
2023/01/06 01:22:44;;;;;;;6.40;4.20;;;;;;;2.03;82.98;100688.98;107483;1254;82126;-57
2023/01/06 01:25:18;;;;;;;5.50;4.20;;;;;;;2.05;83.00;100686.52;107498;1254;96636;-57
2023/01/06 01:27:59;;;;;;;5.90;4.20;;;;;;;2.03;82.92;100687.15;107510;1254;89044;-57
2023/01/06 01:30:44;;;;;;;7.40;5.40;;;;;;;2.01;82.91;100698.73;107438;1253;95877;-57
2023/01/06 01:33:32;;;;;;;6.90;4.50;;;;;;;1.96;82.85;100709.41;107473;1253;80125;-58
2023/01/06 01:36:17;;;;;;;5.60;4.30;;;;;;;2.01;82.86;100709.06;107495;1253;82837;-57
2023/01/06 01:38:59;;;;;;;3.90;3.10;;;;;;;1.93;82.86;100713.98;107478;1254;99388;-56
2023/01/06 01:41:38;;;;;;;4.00;3.20;;;;;;;1.92;82.82;100721.84;107509;1257;88661;-57
2023/01/06 01:45:06;;;;;;;4.20;3.30;;;;;;;1.94;82.85;100718.13;107524;1253;92678;-57
2023/01/06 01:47:50;;;;;;;6.30;3.40;;;;;;;1.97;82.88;100718.73;107503;1254;77160;-57
2023/01/06 01:50:38;;;;;;;5.30;3.40;;;;;;;1.97;82.98;100729.30;107535;1253;82358;-58
2023/01/06 01:53:21;;;;;;;4.50;3.60;;;;;;;1.95;82.91;100739.71;107530;1253;98399;-58
2023/01/06 01:56:05;;;;;;;4.30;3.50;;;;;;;1.91;82.95;100745.55;107487;1254;87354;-55
2023/01/06 01:58:45;;;;;;;4.00;3.40;;;;;;;1.93;82.96;100737.75;107473;1253;95606;-56
2023/01/06 02:01:32;;;;;;;4.70;3.80;;;;;;;1.93;82.94;100740.06;107465;1255;81551;-56
2023/01/06 02:04:10;;;;;;;4.30;3.50;;;;;;;1.99;82.89;100749.35;107481;1254;82333;-55
2023/01/06 02:06:50;;;;;;;4.60;3.30;;;;;;;1.97;83.19;100757.98;107487;1254;97621;-54
2023/01/06 02:09:35;;;;;;;4.30;3.30;;;;;;;1.96;83.13;100765.23;107510;1253;88420;-58
2023/01/06 02:12:15;;;;;;;4.70;3.70;;;;;;;1.93;83.13;100780.89;107486;1254;94234;-57
2023/01/06 02:14:52;;;;;;;4.80;3.40;;;;;;;1.93;83.03;100787.48;107504;1253;79211;-54
2023/01/06 02:18:14;;;;;;;5.80;3.90;;;;;;;1.93;83.05;100781.27;107463;1254;80947;-55
2023/01/06 02:21:31;;;;;;;3.80;3.40;;;;;;;1.90;82.98;100783.70;107505;1254;98665;-58
2023/01/06 02:24:58;;;;;;;5.20;4.10;;;;;;;1.90;83.02;100791.97;107513;1254;88681;-57
2023/01/06 02:28:20;;;;;;;5.00;3.50;;;;;;;1.92;83.08;100793.59;107491;1253;94744;-57
2023/01/06 02:31:36;;;;;;;3.50;3.00;;;;;;;1.88;82.95;100802.29;107515;1253;79729;-55
2023/01/06 02:34:19;;;;;;;;;;;;;;;1.90;83.19;100811.69;107496;1256;81498;-55
2023/01/06 02:37:09;;;;;;;4.50;3.40;;;;;;;1.87;83.10;100823.16;107517;1253;99085;-55
2023/01/06 02:39:59;;;;;;;4.60;3.30;;;;;;;1.84;83.14;100822.33;107538;1253;89032;-59
2023/01/06 02:42:48;;;;;;;3.90;3.50;;;;;;;1.82;83.08;100822.88;107495;1254;95745;-58
2023/01/06 02:45:45;;;;;;;5.10;3.70;;;;;;;1.80;82.96;100832.23;107486;1253;79418;-55
2023/01/06 02:48:33;;;;;;;4.50;3.90;;;;;;;1.75;83.10;100838.48;107482;1254;80887;-54
2023/01/06 02:51:24;;;;;;;4.80;3.70;;;;;;;1.74;83.08;100838.70;107511;1253;99008;-55
2023/01/06 02:54:13;;;;;;;4.20;3.60;;;;;;;1.75;83.12;100843.30;107562;1257;87403;-55
2023/01/06 02:57:08;;;;;;;4.30;3.60;;;;;;;1.78;83.11;100850.31;107486;1254;95319;-55
2023/01/06 02:59:51;;;;;;;5.00;3.70;;;;;;;1.80;83.02;100852.64;107496;1257;77202;-58
2023/01/06 03:02:40;;;;;;;5.00;3.40;;;;;;;1.78;82.98;100859.38;107541;1253;81566;-58
2023/01/06 03:05:22;;;;;;;4.50;3.90;;;;;;;1.75;82.92;100862.45;107491;1252;98167;-55
2023/01/06 03:08:07;;;;;;;4.30;3.60;;;;;;;1.72;82.79;100858.44;107496;1253;86898;-55
2023/01/06 03:10:50;;;;;;;4.00;3.50;;;;;;;1.72;82.86;100863.57;107474;1253;95551;-56
2023/01/06 03:13:33;;;;;;;4.80;3.10;;;;;;;1.69;82.73;100869.27;107407;1253;79733;-55
2023/01/06 03:16:10;;;;;;;3.80;3.00;;;;;;;1.69;82.65;100863.80;107526;1253;82136;-58
2023/01/06 03:18:51;;;;;;;4.20;3.30;;;;;;;1.71;82.63;100863.82;107562;1252;97805;-58
2023/01/06 03:21:36;;;;;;;5.10;3.20;;;;;;;1.73;82.61;100870.79;107540;1253;87062;-57
2023/01/06 03:24:14;;;;;;;4.20;3.50;;;;;;;1.71;82.58;100870.56;107516;1253;95176;-55
2023/01/06 03:26:52;;;;;;;4.30;3.40;;;;;;;1.69;82.63;100878.02;107519;1253;77662;-55
2023/01/06 03:29:28;;;;;;;4.60;3.10;;;;;;;1.68;82.50;100879.17;107566;1253;83264;-57
2023/01/06 03:32:12;;;;;;;3.80;3.30;;;;;;;1.68;82.46;100881.27;107527;1254;97493;-57
2023/01/06 03:35:01;;;;;;;;;;;;;;;1.70;82.45;100881.30;107502;1253;88493;-57
2023/01/06 03:37:52;;;;;;;3.30;3.00;;;;;;;1.65;82.49;100884.50;107471;1254;93781;-58
2023/01/06 03:40:39;;;;;;;4.10;3.00;;;;;;;1.69;82.52;100887.61;107396;1252;77086;-58
2023/01/06 03:43:27;;;;;;;3.90;3.00;;;;;;;1.73;82.57;100894.58;107491;1252;82253;-59
2023/01/06 03:46:23;;;;;;;5.00;3.10;;;;;;;1.68;82.51;100896.16;107406;1255;101086;-59
2023/01/06 03:49:09;;;;;;;4.40;3.40;;;;;;;1.72;82.50;100897.33;107496;1256;87299;-57
2023/01/06 03:51:57;;;;;;;5.30;3.80;;;;;;;1.70;82.43;100901.02;107411;1254;94030;-57
2023/01/06 03:54:43;;;;;;;4.90;3.40;;;;;;;1.69;82.41;100905.13;107504;1257;78874;-59
2023/01/06 03:57:28;;;;;;;4.50;3.40;;;;;;;1.67;82.40;100912.13;107522;1253;81079;-58
2023/01/06 04:00:13;;;;;;;3.90;2.80;;;;;;;1.65;82.29;100912.20;107497;1252;98642;-56
2023/01/06 04:02:50;;;;;;;4.40;3.30;;;;;;;1.65;82.28;100915.64;107545;1253;86370;-55
2023/01/06 04:05:30;;;;;;;3.40;2.80;;;;;;;1.67;82.37;100917.77;107561;1254;95454;-55
2023/01/06 04:08:12;;;;;;;3.60;3.30;;;;;;;1.67;82.47;100916.90;107531;1253;77237;-56
2023/01/06 04:10:52;;;;;;;4.00;3.00;;;;;;;1.69;82.32;100920.11;107438;1253;81547;-58
2023/01/06 04:13:37;;;;;;;4.80;3.30;;;;;;;1.64;82.26;100920.29;107566;1253;97964;-57
2023/01/06 04:16:22;;;;;;;3.60;3.20;;;;;;;1.61;82.11;100927.86;107517;1253;89178;-57
2023/01/06 04:19:00;;;;;;;4.20;3.30;;;;;;;1.56;82.01;100924.99;107503;1257;96092;-56
2023/01/06 04:21:44;;;;;;;4.00;3.20;;;;;;;1.52;81.99;100924.48;107463;1252;80129;-56
2023/01/06 04:24:27;;;;;;;4.50;3.40;;;;;;;1.51;81.87;100922.05;107511;1252;81712;-54
2023/01/06 04:27:07;;;;;;;4.60;3.40;;;;;;;1.53;81.88;100927.08;107481;1253;97499;-55
2023/01/06 04:29:44;;;;;;;3.70;3.10;;;;;;;1.52;81.93;100932.27;107510;1253;89367;-54
2023/01/06 04:32:23;;;;;;;4.10;3.30;;;;;;;1.52;81.93;100937.42;107471;1257;95952;-55
2023/01/06 04:35:05;;;;;;;3.70;2.90;;;;;;;1.50;81.92;100934.06;107512;1253;78897;-56
2023/01/06 04:37:48;;;;;;;4.50;3.00;;;;;;;1.46;81.69;100939.52;107483;1252;84061;-55
2023/01/06 04:40:29;;;;;;;4.70;3.60;;;;;;;1.40;81.76;100944.95;107509;1252;99422;-58
2023/01/06 04:43:14;;;;;;;4.90;3.70;;;;;;;1.35;81.69;100938.35;107508;1253;89220;-54
2023/01/06 04:46:00;;;;;;;4.10;3.10;;;;;;;1.39;81.69;100944.46;107649;1251;96019;-54
2023/01/06 04:48:44;;;;;;;4.50;3.00;;;;;;;1.38;81.60;100948.42;107636;1251;81597;-54
2023/01/06 04:51:25;;;;;;;3.90;3.50;;;;;;;1.38;81.71;100951.34;107719;1251;82016;-57
2023/01/06 04:54:05;;;;;;;4.30;3.30;;;;;;;1.37;81.92;100948.73;107743;1251;97610;-58
2023/01/06 04:56:42;;;;;;;3.80;3.10;;;;;;;1.38;81.85;100948.63;107749;1251;88830;-57
2023/01/06 04:59:19;;;;;;;3.80;3.40;;;;;;;1.39;81.82;100952.10;107515;1253;94488;-57
2023/01/06 05:01:56;;;;;;;;;;;;;;;1.35;81.83;100952.80;107612;1253;79211;-57
2023/01/06 05:04:37;;;;;;;5.00;3.50;;;;;;;1.27;81.77;100945.21;107586;1253;83168;-55
2023/01/06 05:07:20;;;;;;;4.90;3.40;;;;;;;1.20;81.85;100945.42;107531;1253;98552;-55
2023/01/06 05:10:02;;;;;;;4.20;3.60;;;;;;;1.14;81.79;100941.27;107597;1252;88248;-55
2023/01/06 05:12:43;;;;;;;4.00;3.40;;;;;;;1.10;81.69;100941.16;107598;1253;95369;-55
2023/01/06 05:15:30;;;;;;;4.10;3.10;;;;;;;1.10;81.80;100935.67;107602;1252;80009;-58
2023/01/06 05:18:09;;;;;;;5.00;3.20;;;;;;;1.13;81.90;100939.55;107483;1253;81430;-58
2023/01/06 05:20:55;;;;;;;3.90;3.10;;;;;;;1.13;81.96;100940.26;107597;1256;98271;-57
2023/01/06 05:23:51;;;;;;;4.20;3.20;;;;;;;1.15;81.73;100938.27;107538;1253;86176;-57
2023/01/06 05:26:28;;;;;;;3.50;3.20;;;;;;;1.05;81.68;100941.08;107487;1253;93493;-54
2023/01/06 05:29:09;;;;;;;3.70;3.20;;;;;;;0.99;81.68;100951.29;107586;1256;79455;-55
2023/01/06 05:31:49;;;;;;;4.30;3.20;;;;;;;0.96;81.60;100958.92;107604;1252;81736;-55
2023/01/06 05:34:35;;;;;;;4.50;3.50;;;;;;;0.94;81.53;100970.63;107548;1257;96012;-57
2023/01/06 05:37:16;;;;;;;3.40;3.10;;;;;;;0.93;81.55;100968.05;107569;1253;89029;-58
2023/01/06 05:39:52;;;;;;;4.60;3.10;;;;;;;0.91;81.57;100968.73;107571;1253;95597;-58
2023/01/06 05:42:34;;;;;;;4.20;3.80;;;;;;;0.92;81.60;100968.65;107598;1257;79549;-62
2023/01/06 05:45:15;;;;;;;4.00;3.30;;;;;;;0.95;81.68;100975.35;107543;1253;83220;-56
2023/01/06 05:47:58;;;;;;;4.70;3.40;;;;;;;0.93;81.65;100986.98;107604;1253;99182;-56
2023/01/06 05:50:38;;;;;;;4.40;3.20;;;;;;;0.91;81.46;100991.21;107605;1253;88985;-57
2023/01/06 05:53:18;;;;;;;3.90;3.10;;;;;;;0.88;81.40;101001.59;107522;1257;95272;-57
2023/01/06 05:56:01;;;;;;;4.20;3.70;;;;;;;0.83;81.37;101003.75;107537;1256;81568;-55
2023/01/06 05:58:47;;;;;;;3.80;3.40;;;;;;;0.80;81.33;101003.21;107226;1253;434944;-55
2023/01/06 06:01:24;;;;;;;4.10;3.30;;;;;;;0.80;81.34;101008.75;107561;1253;97495;-55
2023/01/06 06:04:05;;;;;;;4.40;3.60;;;;;;;0.82;81.49;101012.14;107571;1256;87776;-55
2023/01/06 06:06:42;;;;;;;4.40;3.70;;;;;;;0.85;81.48;101015.23;107541;1256;92242;-55
2023/01/06 06:09:24;;;;;;;4.70;3.50;;;;;;;0.87;81.61;101015.46;107545;1253;79251;-58
2023/01/06 06:12:08;;;;;;;5.60;4.00;;;;;;;0.86;81.52;101023.73;107543;1253;82538;-58
2023/01/06 06:14:48;;;;;;;5.10;3.60;;;;;;;0.87;81.48;101026.45;107545;1253;98040;-57
2023/01/06 06:17:25;;;;;;;4.60;3.50;;;;;;;0.84;81.54;101027.95;107588;1253;89242;-57
2023/01/06 06:20:03;;;;;;;4.60;3.80;;;;;;;0.81;81.49;101036.46;107567;1253;93213;-58
2023/01/06 06:22:51;;;;;;;3.90;3.30;;;;;;;0.81;81.38;101029.19;107530;1253;80718;-58
2023/01/06 06:25:31;;;;;;;4.40;3.60;;;;;;;0.83;81.39;101027.10;107580;1253;83273;-56
2023/01/06 06:28:10;;;;;;;4.30;3.70;;;;;;;0.84;81.55;101026.67;107617;1252;99215;-55
2023/01/06 06:30:48;;;;;;;3.90;3.20;;;;;;;0.86;81.64;101029.72;107561;1252;88033;-59
2023/01/06 06:33:29;;;;;;;4.00;3.60;;;;;;;0.88;81.56;101034.89;107575;1257;93886;-58
2023/01/06 06:36:14;;;;;;;5.90;4.30;;;;;;;0.88;81.59;101034.19;107572;1253;77870;-58
2023/01/06 06:38:54;;;;;;;5.70;4.10;;;;;;;0.89;81.57;101042.61;107542;1253;82367;-55
2023/01/06 06:41:36;;;;;;;4.00;3.20;;;;;;;0.89;81.59;101047.06;107556;1252;97480;-56
2023/01/06 06:44:15;;;;;;;4.70;3.50;;;;;;;0.85;81.52;101055.63;107535;1253;89500;-60
2023/01/06 06:46:55;;;;;;;5.50;4.40;;;;;;;0.84;81.51;101061.94;107528;1253;93478;-58
2023/01/06 06:49:37;;;;;;;4.70;3.80;;;;;;;0.83;81.52;101067.54;107523;1253;79823;-59
2023/01/06 06:52:16;;;;;;;5.20;3.80;;;;;;;0.83;81.56;101071.08;107553;1253;82447;-58
2023/01/06 06:54:54;;;;;;;4.80;3.60;;;;;;;0.87;81.64;101072.40;107579;1253;97919;-55
2023/01/06 06:57:28;;;;;;;4.10;3.50;;;;;;;0.85;81.74;101072.71;107624;1253;89406;-55
2023/01/06 07:00:09;;;;;;;5.20;3.70;;;;;;;0.88;81.74;101076.60;107572;1256;93629;-55
2023/01/06 07:02:49;;;;;;;4.60;3.50;;;;;;;0.89;81.57;101088.35;107570;1253;79503;-56
2023/01/06 07:05:26;;;;;;;4.60;3.90;;;;;;;0.91;81.62;101083.94;107615;1253;81007;-55
2023/01/06 07:08:07;;;;;;;4.30;3.90;;;;;;;0.92;81.71;101088.13;107617;1257;98195;-55
2023/01/06 07:10:47;;;;;;;5.30;3.70;;;;;;;0.93;81.78;101091.64;107598;1253;86694;-55
2023/01/06 07:13:26;;;;;;;4.90;3.70;;;;;;;0.93;81.59;101093.90;107604;1253;95497;-54
2023/01/06 07:16:07;;;;;;;5.60;3.70;;;;;;;0.95;81.58;101096.08;107559;1253;80985;-57
2023/01/06 07:18:44;;;;;;;5.80;3.90;;;;;;;0.96;81.65;101100.82;107608;1257;83119;-58
2023/01/06 07:21:25;;;;;;;3.80;3.40;;;;;;;0.99;81.72;101102.03;107584;1253;98952;-56
2023/01/06 07:24:03;;;;;;;4.50;3.70;;;;;;;1.00;81.54;101099.98;107589;1253;88955;-56
2023/01/06 07:26:40;;;;;;;5.00;3.80;;;;;;;1.02;81.54;101092.88;107588;1253;93669;-55
2023/01/06 07:29:24;;;;;;;6.30;3.90;;;;;;;1.05;81.72;101090.41;107562;1253;79095;-57
2023/01/06 07:32:03;;;;;;;5.10;3.20;;;;;;;1.04;81.64;101094.73;107533;1257;82478;-58
2023/01/06 07:34:38;;;;;;;5.70;3.60;;;;;;;1.05;81.67;101086.31;107555;1253;98358;-55
2023/01/06 07:37:25;;;;;;;4.80;3.40;;;;;;;1.04;81.67;101086.73;107555;1253;86379;-56
2023/01/06 07:40:06;;;;;;;4.30;3.20;;;;;;;0.99;81.54;101088.85;107559;1253;94393;-56
2023/01/06 07:42:47;;;;;;;4.20;3.00;;;;;;;1.00;81.43;101086.65;107551;1253;78055;-54
2023/01/06 07:45:26;;;;;;;4.00;3.30;;;;;;;1.03;81.43;101080.42;107556;1253;79714;-58
2023/01/06 07:48:09;;;;;;;4.80;3.70;;;;;;;1.05;81.38;101078.46;107410;1253;98214;-58
2023/01/06 07:50:49;;;;;;;5.30;4.00;;;;;;;1.11;81.45;101085.49;107574;1253;87493;-55
2023/01/06 07:53:38;;;;;;;4.60;3.80;;;;;;;1.15;81.45;101080.41;107520;1253;93865;-56
2023/01/06 07:56:23;;;;;;;4.60;3.80;;;;;;;1.17;81.40;101083.48;107576;1253;77925;-55
2023/01/06 07:59:03;;;;;;;6.80;4.40;;;;;;;1.18;81.36;101089.05;107614;1254;82298;-54
2023/01/06 08:01:45;;;;;;;4.80;4.10;;;;;;;1.20;81.30;101096.88;107590;1257;98944;-55
2023/01/06 08:04:22;;;;;;;4.40;3.90;;;;;;;1.17;81.24;101100.13;107422;1253;90605;-58
2023/01/06 08:06:56;;;;;;;5.10;4.00;;;;;;;1.23;81.36;101106.45;107579;1253;94651;-58
2023/01/06 08:09:35;;;;;;;4.90;3.60;;;;;;;1.32;81.33;101105.38;107590;1253;79673;-56
2023/01/06 08:12:11;;;;;;;3.70;3.40;;;;;;;1.41;81.46;101101.35;107536;1252;80381;-56
2023/01/06 08:14:48;;;;;;;4.80;3.60;;;;;;;1.48;81.41;101103.48;107585;1252;97615;-57
2023/01/06 08:17:25;;;;;;;4.30;3.90;;;;;;;1.53;81.25;101102.61;107576;1252;87207;-57
2023/01/06 08:20:01;;;;;;;3.90;3.40;;;;;;;1.52;81.39;101102.64;107565;1253;95423;-55
2023/01/06 08:22:40;;;;;;;6.10;4.30;;;;;;;1.54;81.31;101110.12;107561;1253;79750;-55
2023/01/06 08:25:15;;;;;;;5.70;3.80;;;;;;;1.53;81.18;101110.77;107536;1258;82811;-58
2023/01/06 08:27:50;;;;;;;6.00;4.00;;;;;;;1.50;81.11;101112.23;107513;1253;98637;-57
2023/01/06 08:30:40;;;;;;;6.70;4.80;;;;;;;1.48;81.08;101113.96;107560;1253;87223;-58
2023/01/06 08:33:17;;;;;;;4.50;3.20;;;;;;;1.45;81.04;101112.41;107539;1253;94056;-58
2023/01/06 08:36:00;;;;;;;5.40;3.50;;;;;;;1.48;81.18;101113.75;107600;1253;77671;-55
2023/01/06 08:38:43;;;;;;;4.80;3.80;;;;;;;1.53;81.21;101120.29;107567;1257;82552;-55
2023/01/06 08:41:21;;;;;;;4.20;3.60;;;;;;;1.56;81.24;101121.50;107611;1253;96776;-55
2023/01/06 08:43:57;;;;;;;4.00;3.30;;;;;;;1.53;81.10;101125.30;107650;1253;87469;-57
2023/01/06 08:46:37;;;;;;;5.70;4.00;;;;;;;1.49;80.99;101126.11;107583;1257;92972;-63
2023/01/06 08:49:16;;;;;;;5.40;3.40;;;;;;;1.53;80.86;101122.10;107553;1251;80468;-58
2023/01/06 08:52:08;;;;;;;5.40;4.20;;;;;;;1.55;80.75;101123.16;107610;1253;80607;-58
2023/01/06 08:54:47;;;;;;;5.20;3.70;;;;;;;1.54;80.49;101119.57;107347;1258;98348;-56
2023/01/06 08:57:25;;;;;;;6.10;4.20;;;;;;;1.54;80.77;101119.52;107511;1257;87001;-56
2023/01/06 09:00:09;;;;;;;5.70;4.20;;;;;;;1.58;80.75;101122.04;107524;1256;94449;-57
2023/01/06 09:02:45;;;;;;;5.60;3.80;;;;;;;1.61;80.68;101122.57;107517;1253;78705;-58
2023/01/06 09:05:30;;;;;;;5.10;3.50;;;;;;;1.58;80.57;101126.16;107379;1253;80219;-55
2023/01/06 09:08:12;;;;;;;4.60;3.60;;;;;;;1.62;80.52;101124.44;107566;1253;98694;-55
2023/01/06 09:10:55;;;;;;;4.10;3.70;;;;;;;1.66;80.45;101117.36;107357;1253;90099;-55
2023/01/06 09:13:38;;;;;;;3.60;3.00;;;;;;;1.72;80.33;101120.84;107536;1253;94466;-57
2023/01/06 09:16:27;;;;;;;4.60;3.60;;;;;;;1.68;80.06;101126.60;108283;1249;77212;-58
2023/01/06 09:19:28;;;;;;;4.70;3.30;;;;;;;1.69;80.00;101131.00;108205;1249;81035;31
2023/01/06 09:22:03;;;;;;;4.20;3.70;;;;;;;1.65;79.81;101122.57;106870;1259;98868;-54
2023/01/06 09:25:23;;;;;;;5.10;4.00;;;;;;;1.66;79.87;101120.02;107072;1259;88155;-59
2023/01/06 09:28:16;;;;;;;5.00;3.90;;;;;;;1.64;79.62;101126.04;107167;1256;95701;-57
2023/01/06 09:30:55;;;;;;;4.30;3.90;;;;;;;1.63;79.61;101124.52;107231;1256;78560;-59
2023/01/06 09:33:31;;;;;;;5.60;4.50;;;;;;;1.68;79.82;101119.73;107117;1257;82647;-61
2023/01/06 09:39:58;;;;;;;5.60;4.00;;;;;;;1.79;80.10;101119.77;108086;1253;86525;-53
2023/01/06 09:42:55;;;;;;;5.20;4.30;;;;;;;1.82;79.94;101116.33;107236;1260;92544;-55
2023/01/06 09:45:48;;;;;;;5.50;4.10;;;;;;;1.84;80.02;101114.98;107299;1260;77185;-47
2023/01/06 09:48:33;;;;;;;5.10;4.10;;;;;;;1.89;79.83;101117.96;107290;1257;82997;-46
2023/01/06 09:55:25;;;;;;;4.80;4.10;;;;;;;1.85;79.68;101119.30;107200;1258;87097;-60
2023/01/06 09:58:17;;;;;;;6.40;5.10;;;;;;;1.86;79.79;101112.68;107209;1257;94418;-63
2023/01/06 10:01:09;;;;;;;5.40;4.40;;;;;;;1.87;79.73;101107.42;107178;1260;79847;-64
2023/01/06 10:03:59;;;;;;;6.40;4.60;;;;;;;1.85;79.59;101104.95;107181;1260;82143;-61
2023/01/06 10:06:50;;;;;;;5.80;4.30;;;;;;;1.81;79.60;101108.23;107141;1259;98293;-62
2023/01/06 10:09:35;;;;;;;5.70;4.20;;;;;;;1.83;79.77;101110.06;107165;1259;88281;-61
2023/01/06 10:12:37;;;;;;;6.20;3.90;;;;;;;1.82;79.75;101111.41;107191;1258;95424;-59
2023/01/06 10:15:29;;;;;;;5.70;4.30;;;;;;;1.85;79.72;101098.71;107135;1256;78412;-58
2023/01/06 10:18:30;;;;;;;5.50;4.10;;;;;;;1.92;80.01;101093.57;107230;1256;81565;-60
2023/01/06 10:21:46;;;;;;;4.40;3.80;;;;;;;1.97;79.66;101093.02;107241;1256;97886;-61
2023/01/06 10:28:22;;;;;;;;;;;;;;;1.93;79.47;101089.27;107221;1256;95442;-60
2023/01/06 10:31:14;;;;;;;5.10;4.10;;;;;;;1.86;79.53;101085.87;107079;1261;77548;-61
2023/01/06 10:34:03;;;;;;;4.80;4.30;;;;;;;1.83;79.45;101084.70;107269;1256;80808;-61
2023/01/06 10:36:53;;;;;;;5.40;4.90;;;;;;;1.83;79.39;101079.55;107055;1263;97848;-59
2023/01/06 10:39:35;;;;;;;7.30;5.10;;;;;;;1.78;79.35;101086.33;107220;1256;86697;-63
2023/01/06 10:45:52;;;;;;;4.90;4.30;;;;;;;1.84;79.53;101079.65;107219;1256;77630;-63
2023/01/06 10:48:42;;;;;;;5.80;4.40;;;;;;;1.93;79.60;101082.65;107260;1256;82234;-64
2023/01/06 10:51:47;;;;;;;6.50;4.40;;;;;;;1.99;79.62;101079.54;107032;1257;99421;-63
2023/01/06 10:54:50;;;;;;;5.30;4.30;;;;;;;2.02;79.72;101080.03;107048;1260;86613;-62
2023/01/06 10:57:43;;;;;;;6.00;5.00;;;;;;;2.04;79.65;101073.83;107054;1259;94122;-62
2023/01/06 11:00:31;;;;;;;6.10;4.90;;;;;;;2.03;79.71;101065.91;106994;1259;78307;-63
2023/01/06 11:03:26;;;;;;;7.20;4.70;;;;;;;2.03;79.74;101062.48;107038;1259;81611;-62
2023/01/06 11:06:20;;;;;;;8.90;6.30;;;;;;;2.04;79.67;101062.45;107059;1259;97369;-61
2023/01/06 11:09:31;;;;;;;10.80;6.20;;;;;;;2.02;79.74;101064.94;107083;1264;87894;-62
2023/01/06 11:12:43;;;;;;;8.50;5.60;;;;;;;1.99;79.79;101061.75;107061;1259;94343;-63
2023/01/06 11:15:36;;;;;;;7.50;5.00;;;;;;;2.02;79.82;101060.08;107003;1259;82198;-65
2023/01/06 11:18:27;;;;;;;6.20;4.60;;;;;;;2.03;79.71;101060.35;107053;1259;83036;-63
2023/01/06 11:21:15;;;;;;;6.40;4.40;;;;;;;2.01;79.64;101041.54;107078;1259;98957;-64
2023/01/06 11:24:17;;;;;;;7.00;4.80;;;;;;;2.05;79.66;101037.98;107132;1259;88211;-63
2023/01/06 11:27:06;;;;;;;6.50;5.10;;;;;;;2.10;79.49;101031.41;107036;1259;93973;-63
2023/01/06 11:29:51;;;;;;;7.10;5.20;;;;;;;2.11;79.29;101027.60;106974;1259;78736;-64
2023/01/06 11:32:30;;;;;;;8.40;5.70;;;;;;;2.09;79.15;101024.35;107048;1263;80578;-61
2023/01/06 11:35:19;;;;;;;5.90;4.80;;;;;;;2.07;79.10;101028.23;107006;1259;98588;-62
2023/01/06 11:38:03;;;;;;;7.80;6.30;;;;;;;2.12;79.20;101027.36;107010;1260;87259;-61
2023/01/06 11:40:43;;;;;;;7.80;5.80;;;;;;;2.10;79.15;101015.22;106996;1262;92975;-58
2023/01/06 11:43:26;;;;;;;7.80;5.60;;;;;;;2.04;78.90;101014.63;107029;1259;77005;-61
2023/01/06 11:46:05;;;;;;;7.70;5.40;;;;;;;2.02;78.91;101014.14;107013;1263;82136;-63
2023/01/06 11:49:03;;;;;;;10.00;5.70;;;;;;;2.01;79.10;101011.14;107042;1259;98476;-61
2023/01/06 11:52:01;;;;;;;8.70;5.10;;;;;;;2.04;79.05;101011.25;107031;1259;85716;-63
2023/01/06 11:54:43;;;;;;;6.20;5.20;;;;;;;2.05;79.20;101007.97;107212;1256;94628;-62
2023/01/06 11:57:34;;;;;;;6.40;5.30;;;;;;;2.13;79.21;101011.95;107259;1256;80008;-61
2023/01/06 12:00:46;;;;;;;6.50;5.00;;;;;;;2.17;79.33;101011.86;107072;1256;81694;-61
2023/01/06 12:03:35;;;;;;;8.30;6.40;;;;;;;2.22;79.26;101009.28;107209;1257;96735;-59
2023/01/06 12:06:29;;;;;;;7.80;5.80;;;;;;;2.17;79.08;101007.02;107267;1258;88264;-60
2023/01/06 12:09:18;;;;;;;11.50;8.00;;;;;;;2.10;78.70;101003.71;107267;1261;92893;-62
2023/01/06 12:12:03;;;;;;;13.30;9.60;;;;;;;2.01;78.66;100998.88;107289;1256;78470;-62
2023/01/06 12:14:40;;;;;;;7.70;5.80;;;;;;;2.04;78.80;100991.77;107315;1256;82776;-60
2023/01/06 12:17:32;;;;;;;6.60;5.20;;;;;;;2.04;78.64;100989.09;107303;1257;98528;-62
2023/01/06 12:20:19;;;;;;;8.10;6.00;;;;;;;2.03;78.88;100997.65;107231;1256;88120;-63
2023/01/06 12:22:59;;;;;;;11.20;8.00;;;;;;;2.05;78.82;100995.42;107275;1256;95080;-60
2023/01/06 12:25:44;;;;;;;9.30;7.60;;;;;;;2.07;78.80;100996.46;107275;1256;79185;-61
2023/01/06 12:28:31;;;;;;;9.40;7.70;;;;;;;2.09;78.98;100994.34;107217;1257;82804;-61
2023/01/06 12:31:18;;;;;;;8.20;6.60;;;;;;;2.12;78.99;100989.14;107242;1257;98940;-60
2023/01/06 12:34:03;;;;;;;8.60;7.00;;;;;;;2.14;78.91;100987.33;107204;1256;87229;-62
2023/01/06 12:36:50;;;;;;;10.00;8.10;;;;;;;2.15;78.95;100984.30;107238;1256;95789;-60
2023/01/06 12:39:44;;;;;;;7.90;6.40;;;;;;;2.16;79.02;100981.51;107252;1256;77714;-60
2023/01/06 12:42:30;;;;;;;12.40;8.50;;;;;;;2.14;79.18;100977.04;107291;1256;83710;-60
2023/01/06 12:45:16;;;;;;;12.90;11.00;;;;;;;2.15;78.80;100977.38;107277;1256;98690;-59
2023/01/06 12:48:00;;;;;;;11.00;9.80;;;;;;;2.09;78.89;100973.55;107246;1256;88334;-60
2023/01/06 12:50:40;;;;;;;12.10;9.60;;;;;;;2.05;78.84;100972.28;107288;1256;93878;-61
2023/01/06 12:53:23;;;;;;;11.60;9.60;;;;;;;2.04;78.78;100975.55;107300;1256;81508;-60
2023/01/06 12:56:23;;;;;;;12.40;10.20;;;;;;;2.05;79.04;100981.15;107348;1256;80727;-60
2023/01/06 12:59:12;;;;;;;11.60;9.50;;;;;;;2.04;79.31;100988.17;107309;1257;98085;-60
2023/01/06 13:01:56;;;;;;;11.00;8.90;;;;;;;2.08;79.25;100985.90;107267;1256;88105;-61
2023/01/06 13:05:14;;;;;;;10.30;8.50;;;;;;;2.05;79.19;100988.48;107251;1261;94077;-62
2023/01/06 13:08:06;;;;;;;9.80;7.90;;;;;;;2.05;79.39;100991.33;107210;1256;80126;-60